Time;durP1;ratioP1;P1;durP2;ratioP2;P2;SDS_P1;SDS_P2;PMS_P1;PMS_P2;Temp;Humidity;BMP_temperature;BMP_pressure;BME280_temperature;BME280_humidity;BME280_pressure;Samples;Min_cycle;Max_cycle;Signal;HPM_P1;HPM_P2
2023/10/21 00:01:54;;;;;;;11.68;7.13;;;;;;;-143.90;100.00;65065.84;6214611;23;20008;-83
2023/10/21 00:04:21;;;;;;;13.65;7.22;;;;;;;-143.90;100.00;65065.84;6214511;23;20336;-84
2023/10/21 00:06:46;;;;;;;16.42;7.25;;;;;;;-143.90;100.00;65065.84;6188056;23;20434;-84
2023/10/21 00:09:11;;;;;;;17.40;7.53;;;;;;;-143.90;100.00;65065.84;6187613;23;20011;-82
2023/10/21 00:11:37;;;;;;;14.30;6.80;;;;;;;-143.90;100.00;65065.84;6188061;23;20009;-85
2023/10/21 00:14:02;;;;;;;12.82;7.75;;;;;;;-143.90;100.00;65065.84;6212866;23;20015;-84
2023/10/21 00:16:28;;;;;;;13.30;7.72;;;;;;;-143.90;100.00;65065.84;6214461;23;20008;-84
2023/10/21 00:18:53;;;;;;;17.60;8.90;;;;;;;-143.90;100.00;65065.84;6214367;23;20487;-83
2023/10/21 00:21:18;;;;;;;15.45;8.85;;;;;;;-143.90;100.00;65065.84;6213111;23;20019;-84
2023/10/21 00:23:43;;;;;;;16.38;8.82;;;;;;;-143.90;100.00;65065.84;6188317;23;20013;-84
2023/10/21 00:26:09;;;;;;;19.98;9.98;;;;;;;-143.90;100.00;65065.84;6214703;23;20329;-84
2023/10/21 00:28:34;;;;;;;17.98;10.10;;;;;;;-143.90;100.00;65065.84;6214406;23;20058;-82
2023/10/21 00:31:05;;;;;;;18.35;10.25;;;;;;;-143.90;100.00;65065.84;6214417;23;20096;-82
2023/10/21 00:33:31;;;;;;;18.05;9.82;;;;;;;-143.90;100.00;65065.84;6213862;23;20013;-82
2023/10/21 00:35:56;;;;;;;17.83;9.70;;;;;;;-143.90;100.00;65065.84;6187582;23;20327;-83
2023/10/21 00:38:21;;;;;;;18.83;9.98;;;;;;;-143.90;100.00;65065.84;6214996;23;20147;-83
2023/10/21 00:40:55;;;;;;;19.90;10.00;;;;;;;-143.90;100.00;65065.84;6216863;23;20091;-83
2023/10/21 00:43:38;;;;;;;18.10;9.35;;;;;;;-143.90;100.00;65065.84;6187626;23;20011;-83
2023/10/21 00:46:13;;;;;;;19.50;9.95;;;;;;;-143.90;100.00;65065.84;6214238;23;20032;-83
2023/10/21 00:48:39;;;;;;;25.63;10.70;;;;;;;-143.90;100.00;65065.84;6187575;23;20009;-84
2023/10/21 00:51:05;;;;;;;22.42;10.63;;;;;;;-143.90;100.00;65065.84;6214331;23;20059;-83
2023/10/21 00:53:31;;;;;;;20.33;9.85;;;;;;;-143.90;100.00;65065.84;6187764;23;20373;-83
2023/10/21 00:55:58;;;;;;;24.73;11.45;;;;;;;-143.90;100.00;65065.84;6187681;23;20015;-83
2023/10/21 00:58:25;;;;;;;25.02;12.60;;;;;;;-143.90;100.00;65065.84;6214341;23;20000;-84
2023/10/21 01:00:51;;;;;;;20.25;12.45;;;;;;;-143.90;100.00;65065.84;6214242;23;20476;-84
2023/10/21 01:03:16;;;;;;;22.33;11.55;;;;;;;-143.90;100.00;65065.84;6187444;23;20028;-83
2023/10/21 01:05:42;;;;;;;21.98;11.93;;;;;;;-143.90;100.00;65065.84;6187670;23;20013;-85
2023/10/21 01:08:07;;;;;;;21.73;10.25;;;;;;;-143.90;100.00;65065.84;6214262;23;20016;-84
2023/10/21 01:10:32;;;;;;;19.70;11.10;;;;;;;-143.90;100.00;65065.84;6162831;23;20095;-86
2023/10/21 01:12:58;;;;;;;21.50;9.60;;;;;;;-143.90;100.00;65065.84;6187945;23;20415;-85
2023/10/21 01:15:23;;;;;;;19.45;9.55;;;;;;;-143.90;100.00;65065.84;6187728;23;20007;-85
2023/10/21 01:17:50;;;;;;;20.75;9.70;;;;;;;-143.90;100.00;65065.84;6187539;23;20070;-86
2023/10/21 01:20:16;;;;;;;14.80;9.18;;;;;;;-143.90;100.00;65065.84;6187945;23;20004;-85
2023/10/21 01:22:42;;;;;;;19.42;9.30;;;;;;;-143.90;100.00;65065.84;6212648;23;20004;-85
2023/10/21 01:25:08;;;;;;;19.75;10.35;;;;;;;-143.90;100.00;65065.84;6214193;23;20005;-84
2023/10/21 01:27:33;;;;;;;19.73;9.52;;;;;;;-143.90;100.00;65065.84;6187573;23;20004;-85
2023/10/21 01:29:59;;;;;;;16.25;8.60;;;;;;;-143.90;100.00;65065.84;6190208;23;20008;-84
2023/10/21 01:32:25;;;;;;;15.13;8.73;;;;;;;-143.90;100.00;65065.84;6215188;23;20000;-84
2023/10/21 01:34:50;;;;;;;16.30;9.68;;;;;;;-143.90;100.00;65065.84;6217724;23;20248;-85
2023/10/21 01:37:16;;;;;;;17.17;8.95;;;;;;;-143.90;100.00;65065.84;6217481;23;20311;-84
2023/10/21 01:39:41;;;;;;;20.95;9.45;;;;;;;-143.90;100.00;65065.84;6214872;23;20019;-84
2023/10/21 01:42:06;;;;;;;19.65;9.57;;;;;;;-143.90;100.00;65065.84;6187480;23;20008;-83
2023/10/21 01:44:32;;;;;;;20.45;10.48;;;;;;;-143.90;100.00;65065.84;6213989;23;20039;-84
2023/10/21 01:46:57;;;;;;;22.25;11.32;;;;;;;-143.90;100.00;65065.84;6213835;23;20000;-84
2023/10/21 01:49:22;;;;;;;17.80;9.00;;;;;;;-143.90;100.00;65065.84;6187357;23;20059;-84
2023/10/21 01:51:47;;;;;;;24.83;11.18;;;;;;;-143.90;100.00;65065.84;6187363;23;20266;-84
2023/10/21 01:54:13;;;;;;;21.13;9.70;;;;;;;-143.90;100.00;65065.84;6187430;23;20012;-84
2023/10/21 01:56:38;;;;;;;17.08;9.25;;;;;;;-143.90;100.00;65065.84;6188047;23;20009;-83
2023/10/21 01:59:04;;;;;;;22.35;9.82;;;;;;;-143.90;100.00;65065.84;6214021;23;20087;-83
2023/10/21 02:01:29;;;;;;;17.05;9.90;;;;;;;-143.90;100.00;65065.84;6214387;23;20007;-83
2023/10/21 02:03:55;;;;;;;15.80;9.07;;;;;;;-143.90;100.00;65065.84;6214081;23;20012;-85
2023/10/21 02:06:38;;;;;;;16.65;8.18;;;;;;;-143.90;100.00;65065.84;6213950;23;20009;-86
2023/10/21 02:09:04;;;;;;;17.73;8.85;;;;;;;-143.90;100.00;65065.84;6213939;23;20009;-86
2023/10/21 02:11:29;;;;;;;14.43;8.18;;;;;;;-143.90;100.00;65065.84;6214047;23;20008;-85
2023/10/21 02:13:55;;;;;;;20.33;8.73;;;;;;;-143.90;100.00;65065.84;6187460;23;20070;-85
2023/10/21 02:16:20;;;;;;;19.63;10.57;;;;;;;-143.90;100.00;65065.84;6214062;23;20005;-85
2023/10/21 02:18:45;;;;;;;18.20;8.70;;;;;;;-143.90;100.00;65065.84;6187250;23;20516;-84
2023/10/21 02:21:10;;;;;;;14.93;8.00;;;;;;;-143.90;100.00;65065.84;6214385;23;20012;-84
2023/10/21 02:23:36;;;;;;;19.13;8.68;;;;;;;-143.90;100.00;65065.84;6213784;23;20432;-84
2023/10/21 02:26:05;;;;;;;14.73;7.93;;;;;;;-143.90;100.00;65065.84;6213759;23;20058;-83
2023/10/21 02:28:31;;;;;;;18.90;9.27;;;;;;;-143.90;100.00;65065.84;6214310;23;20000;-84
2023/10/21 02:30:57;;;;;;;15.40;8.75;;;;;;;-143.90;100.00;65065.84;6213703;23;20009;-84
2023/10/21 02:33:23;;;;;;;14.82;9.00;;;;;;;-143.90;100.00;65065.84;6213868;23;20000;-83
2023/10/21 02:35:52;;;;;;;15.95;8.60;;;;;;;-143.90;100.00;65065.84;6187288;23;20024;-85
2023/10/21 02:38:18;;;;;;;17.35;8.35;;;;;;;-143.90;100.00;65065.84;6214179;23;20045;-83
2023/10/21 02:40:43;;;;;;;18.17;8.60;;;;;;;-143.90;100.00;65065.84;6213672;23;20015;-84
2023/10/21 02:43:09;;;;;;;14.75;8.50;;;;;;;-143.90;100.00;65065.84;6213786;23;20009;-84
2023/10/21 02:45:35;;;;;;;17.40;8.90;;;;;;;-143.90;100.00;65065.84;6213751;23;20011;-83
2023/10/21 02:48:00;;;;;;;18.88;8.18;;;;;;;-143.90;100.00;65065.84;6213669;23;20384;-83
2023/10/21 02:50:26;;;;;;;17.27;7.95;;;;;;;-143.90;100.00;65065.84;6213563;23;20095;-85
2023/10/21 02:52:52;;;;;;;11.60;7.72;;;;;;;-143.90;100.00;65065.84;6212101;23;20338;-84
2023/10/21 02:55:18;;;;;;;18.65;8.75;;;;;;;-143.90;100.00;65065.84;6187121;23;20155;-85
2023/10/21 02:57:44;;;;;;;14.75;7.82;;;;;;;-143.90;100.00;65065.84;6212998;23;20015;-83
2023/10/21 03:00:15;;;;;;;16.42;8.05;;;;;;;-143.90;100.00;65065.84;6187075;23;20008;-84
2023/10/21 03:02:41;;;;;;;15.38;9.85;;;;;;;-143.90;100.00;65065.84;6187186;23;20020;-84
2023/10/21 03:05:07;;;;;;;18.27;8.48;;;;;;;-143.90;100.00;65065.84;6186801;23;20100;-84
2023/10/21 03:07:33;;;;;;;19.17;8.65;;;;;;;-143.90;100.00;65065.84;6212046;23;20032;-84
2023/10/21 03:09:59;;;;;;;17.10;9.75;;;;;;;-143.90;100.00;65065.84;6213571;23;20021;-84
2023/10/21 03:12:25;;;;;;;14.57;8.43;;;;;;;-143.90;100.00;65065.84;6186796;23;20074;-83
2023/10/21 03:14:50;;;;;;;20.88;9.18;;;;;;;-143.90;100.00;65065.84;6213503;23;20008;-83
2023/10/21 03:17:15;;;;;;;19.27;8.50;;;;;;;-143.90;100.00;65065.84;6213478;23;20001;-84
2023/10/21 03:19:41;;;;;;;19.00;9.27;;;;;;;-143.90;100.00;65065.84;6213298;23;20426;-83
2023/10/21 03:22:06;;;;;;;15.15;8.90;;;;;;;-143.90;100.00;65065.84;6211929;23;20004;-83
2023/10/21 03:24:32;;;;;;;18.50;8.65;;;;;;;-143.90;100.00;65065.84;6213326;23;20004;-83
2023/10/21 03:26:57;;;;;;;20.00;8.70;;;;;;;-143.90;100.00;65065.84;6213405;23;20001;-83
2023/10/21 03:29:22;;;;;;;14.07;8.15;;;;;;;-143.90;100.00;65065.84;6186631;23;20009;-83
2023/10/21 03:31:48;;;;;;;17.35;8.45;;;;;;;-143.90;100.00;65065.84;6186710;23;20460;-82
2023/10/21 03:34:13;;;;;;;16.77;8.48;;;;;;;-143.90;100.00;65065.84;6186679;23;20009;-84
2023/10/21 03:36:39;;;;;;;20.55;8.45;;;;;;;-143.90;100.00;65065.84;6211672;23;20012;-83
2023/10/21 03:39:05;;;;;;;18.35;9.50;;;;;;;-143.90;100.00;65065.84;6186727;23;20017;-83
2023/10/21 03:41:31;;;;;;;15.18;8.52;;;;;;;-143.90;100.00;65065.84;6186615;23;20013;-83
2023/10/21 03:43:57;;;;;;;17.45;8.73;;;;;;;-143.90;100.00;65065.84;6186608;23;20011;-84
2023/10/21 03:46:23;;;;;;;16.10;8.93;;;;;;;-143.90;100.00;65065.84;6186591;23;20087;-84
2023/10/21 03:48:48;;;;;;;20.75;9.02;;;;;;;-143.90;100.00;65065.84;6186637;23;20051;-84
2023/10/21 03:51:13;;;;;;;14.48;7.25;;;;;;;-143.90;100.00;65065.84;6213060;23;20009;-84
2023/10/21 03:53:43;;;;;;;16.83;8.55;;;;;;;-143.90;100.00;65065.84;6213013;23;20008;-82
2023/10/21 03:56:09;;;;;;;14.68;8.35;;;;;;;-143.90;100.00;65065.84;6212996;23;20032;-82
2023/10/21 03:58:36;;;;;;;14.75;8.88;;;;;;;-143.90;100.00;65065.84;6186510;23;20532;-83
2023/10/21 04:01:01;;;;;;;18.02;8.05;;;;;;;-143.90;100.00;65065.84;6211471;23;20013;-83
2023/10/21 04:03:27;;;;;;;18.10;8.10;;;;;;;-143.90;100.00;65065.84;6213193;23;20008;-83
2023/10/21 04:05:53;;;;;;;17.25;8.82;;;;;;;-143.90;100.00;65065.84;6211440;23;20397;-82
2023/10/21 04:08:22;;;;;;;14.35;7.43;;;;;;;-143.90;100.00;65065.84;6211616;23;20036;-83
2023/10/21 04:10:48;;;;;;;15.70;7.88;;;;;;;-143.90;100.00;65065.84;6214419;23;20422;-82
2023/10/21 04:13:13;;;;;;;17.33;7.68;;;;;;;-143.90;100.00;65065.84;6214352;23;20004;-82
2023/10/21 04:15:39;;;;;;;12.32;7.00;;;;;;;-143.90;100.00;65065.84;6214430;23;20437;-83
2023/10/21 04:18:04;;;;;;;17.85;9.63;;;;;;;-143.90;100.00;65065.84;6214453;23;20087;-84
2023/10/21 04:20:31;;;;;;;13.50;7.70;;;;;;;-143.90;100.00;65065.84;6213032;23;20014;-82
2023/10/21 04:22:57;;;;;;;17.42;8.38;;;;;;;-143.90;100.00;65065.84;6214422;23;19997;-83
2023/10/21 04:25:23;;;;;;;18.85;8.60;;;;;;;-143.90;100.00;65065.84;6214298;23;20012;-84
2023/10/21 04:27:49;;;;;;;18.27;9.02;;;;;;;-143.90;100.00;65065.84;6187752;23;20020;-84
2023/10/21 04:30:14;;;;;;;18.27;8.63;;;;;;;-143.90;100.00;65065.84;6214289;23;20004;-83
2023/10/21 04:32:40;;;;;;;17.42;8.25;;;;;;;-143.90;100.00;65065.84;6212831;23;20000;-83
2023/10/21 04:35:06;;;;;;;16.20;7.97;;;;;;;-143.90;100.00;65065.84;6187836;23;20028;-84
2023/10/21 04:37:31;;;;;;;16.20;9.50;;;;;;;-143.90;100.00;65065.84;6214296;23;20004;-84
2023/10/21 04:39:57;;;;;;;16.70;8.30;;;;;;;-143.90;100.00;65065.84;6187552;23;20071;-85
2023/10/21 04:42:26;;;;;;;16.90;9.57;;;;;;;-143.90;100.00;65065.84;6214707;23;20015;-84
2023/10/21 04:44:51;;;;;;;19.25;8.68;;;;;;;-143.90;100.00;65065.84;6214452;23;20329;-83
2023/10/21 04:47:17;;;;;;;18.17;8.43;;;;;;;-143.90;100.00;65065.84;6186737;23;20015;-83
2023/10/21 04:49:45;;;;;;;23.92;9.75;;;;;;;-143.90;100.00;65065.84;6214191;23;20009;-82
2023/10/21 04:52:11;;;;;;;22.45;8.43;;;;;;;-143.90;100.00;65065.84;6187592;23;20005;-83
2023/10/21 04:54:36;;;;;;;17.27;8.43;;;;;;;-143.90;100.00;65065.84;6187615;23;20013;-83
2023/10/21 04:57:02;;;;;;;21.90;9.55;;;;;;;-143.90;100.00;65065.84;6214365;23;20012;-85
2023/10/21 04:59:27;;;;;;;16.25;8.32;;;;;;;-143.90;100.00;65065.84;6214301;23;20083;-83
2023/10/21 05:01:53;;;;;;;17.88;8.38;;;;;;;-143.90;100.00;65065.84;6212627;23;20013;-83
2023/10/21 05:04:18;;;;;;;16.48;8.27;;;;;;;-143.90;100.00;65065.84;6212731;23;20075;-84
2023/10/21 05:06:43;;;;;;;19.30;7.90;;;;;;;-143.90;100.00;65065.84;6214182;23;20005;-85
2023/10/21 05:09:10;;;;;;;24.63;8.70;;;;;;;-143.90;100.00;65065.84;6187389;23;20008;-85
2023/10/21 05:11:35;;;;;;;16.35;8.70;;;;;;;-143.90;100.00;65065.84;6214202;23;20450;-85
2023/10/21 05:14:01;;;;;;;18.25;8.50;;;;;;;-143.90;100.00;65065.84;6187597;23;20008;-84
2023/10/21 05:16:26;;;;;;;19.88;8.90;;;;;;;-143.90;100.00;65065.84;6214116;23;20009;-85
2023/10/21 05:18:51;;;;;;;17.95;8.38;;;;;;;-143.90;100.00;65065.84;6187398;23;20438;-84
2023/10/21 05:21:16;;;;;;;19.97;8.77;;;;;;;-143.90;100.00;65065.84;6187223;23;20016;-83
2023/10/21 05:23:42;;;;;;;19.17;7.97;;;;;;;-143.90;100.00;65065.84;6214232;23;20243;-84
2023/10/21 05:26:07;;;;;;;19.17;8.63;;;;;;;-143.90;100.00;65065.84;6188387;23;20099;-84
2023/10/21 05:28:32;;;;;;;17.65;8.82;;;;;;;-143.90;100.00;65065.84;6215654;23;20452;-85
2023/10/21 05:30:58;;;;;;;17.38;8.40;;;;;;;-143.90;100.00;65065.84;6214004;23;20012;-85
2023/10/21 05:33:24;;;;;;;17.58;8.38;;;;;;;-143.90;100.00;65065.84;6187325;23;20423;-85
2023/10/21 05:35:49;;;;;;;23.10;8.20;;;;;;;-143.90;100.00;65065.84;6214086;23;20019;-86
2023/10/21 05:38:14;;;;;;;14.93;7.70;;;;;;;-143.90;100.00;65065.84;6213917;23;20086;-85
2023/10/21 05:40:41;;;;;;;19.63;8.00;;;;;;;-143.90;100.00;65065.84;6214037;23;20084;-85
2023/10/21 05:43:06;;;;;;;21.77;8.30;;;;;;;-143.90;100.00;65065.84;6214288;23;20009;-86
2023/10/21 05:45:33;;;;;;;17.05;9.57;;;;;;;-143.90;100.00;65065.84;6213899;23;20004;-86
2023/10/21 05:47:59;;;;;;;22.55;10.27;;;;;;;-143.90;100.00;65065.84;6212487;23;20054;-85
2023/10/21 05:50:25;;;;;;;15.07;8.70;;;;;;;-143.90;100.00;65065.84;6214128;23;20425;-86
2023/10/21 05:52:51;;;;;;;22.80;8.63;;;;;;;-143.90;100.00;65065.84;6214310;23;20031;-86
2023/10/21 05:55:17;;;;;;;16.23;8.30;;;;;;;-143.90;100.00;65065.84;6214555;23;20001;-86
2023/10/21 05:57:43;;;;;;;16.38;8.70;;;;;;;-143.90;100.00;65065.84;6214017;23;20015;-87
2023/10/21 06:00:09;;;;;;;15.60;8.65;;;;;;;-143.90;100.00;65065.84;6214185;23;20008;-87
2023/10/21 06:02:34;;;;;;;17.83;8.30;;;;;;;-143.90;100.00;65065.84;6187350;23;20055;-86
2023/10/21 06:04:59;;;;;;;34.10;8.17;;;;;;;-143.90;100.00;65065.84;6187689;23;20009;-87
2023/10/21 06:07:25;;;;;;;15.43;8.48;;;;;;;-143.90;100.00;65065.84;6187647;23;20554;-87
2023/10/21 06:09:50;;;;;;;11.95;6.65;;;;;;;-143.90;100.00;65065.84;6214192;23;20001;-87
2023/10/21 06:12:15;;;;;;;15.75;7.05;;;;;;;-143.90;100.00;65065.84;6214140;23;20012;-86
2023/10/21 06:14:41;;;;;;;10.93;7.18;;;;;;;-143.90;100.00;65065.84;6212654;23;20014;-87
2023/10/21 06:17:06;;;;;;;16.67;7.03;;;;;;;-143.90;100.00;65065.84;6187733;23;20477;-86
2023/10/21 06:19:32;;;;;;;18.73;8.00;;;;;;;-143.90;100.00;65065.84;6214168;23;20063;-86
2023/10/21 06:21:58;;;;;;;19.30;8.60;;;;;;;-143.90;100.00;65065.84;6213993;23;20001;-87
2023/10/21 06:24:23;;;;;;;18.67;9.20;;;;;;;-143.90;100.00;65065.84;6214072;23;20062;-88
2023/10/21 06:26:49;;;;;;;17.88;10.63;;;;;;;-143.90;100.00;65065.84;6214201;23;20015;-86
2023/10/21 06:29:14;;;;;;;17.42;9.98;;;;;;;-143.90;100.00;65065.84;6214050;23;20004;-86
2023/10/21 06:31:40;;;;;;;17.42;10.05;;;;;;;-143.90;100.00;65065.84;6213309;23;20422;-86
2023/10/21 06:34:05;;;;;;;19.33;9.85;;;;;;;-143.90;100.00;65065.84;6213739;23;20065;-87
2023/10/21 06:36:31;;;;;;;15.18;9.30;;;;;;;-143.90;100.00;65065.84;6187565;23;20011;-87
2023/10/21 06:38:57;;;;;;;18.50;9.25;;;;;;;-143.90;100.00;65065.84;6213977;23;20418;-86
2023/10/21 06:41:23;;;;;;;18.95;8.00;;;;;;;-143.90;100.00;65065.84;6212464;23;20004;-88
2023/10/21 06:43:49;;;;;;;16.45;7.82;;;;;;;-143.90;100.00;65065.84;6187552;23;20017;-87
2023/10/21 06:46:15;;;;;;;21.52;8.13;;;;;;;-143.90;100.00;65065.84;6187574;23;20011;-89
2023/10/21 06:48:40;;;;;;;30.30;17.05;;;;;;;-143.90;100.00;65065.84;6187411;23;20012;-86
2023/10/21 06:51:06;;;;;;;34.60;13.80;;;;;;;-143.90;100.00;65065.84;6213944;23;20354;-88
2023/10/21 06:53:31;;;;;;;27.52;13.93;;;;;;;-143.90;100.00;65065.84;6187964;23;20000;-85
2023/10/21 06:55:56;;;;;;;19.38;8.48;;;;;;;-143.90;100.00;65065.84;6187308;23;20005;-86
2023/10/21 06:58:22;;;;;;;25.35;10.27;;;;;;;-143.90;100.00;65065.84;6187206;23;20385;-84
2023/10/21 07:00:47;;;;;;;18.58;8.35;;;;;;;-143.90;100.00;65065.84;6213817;23;20083;-84
2023/10/21 07:03:12;;;;;;;14.30;7.50;;;;;;;-143.90;100.00;65065.84;6187125;23;20105;-84
2023/10/21 07:05:40;;;;;;;19.73;7.80;;;;;;;-143.90;100.00;65065.84;6213688;23;20032;-84
2023/10/21 07:08:06;;;;;;;19.38;11.40;;;;;;;-143.90;100.00;65065.84;6187061;23;20342;-86
2023/10/21 07:10:31;;;;;;;12.63;8.95;;;;;;;-143.90;100.00;65065.84;6187168;23;20007;-85
2023/10/21 07:13:01;;;;;;;16.30;6.90;;;;;;;-143.90;100.00;65065.84;6213967;23;20079;-83
2023/10/21 07:15:33;;;;;;;14.15;6.85;;;;;;;-143.90;100.00;65065.84;6213538;23;20028;-86
2023/10/21 07:17:58;;;;;;;13.43;6.88;;;;;;;-143.90;100.00;65065.84;6186778;23;20389;-83
2023/10/21 07:20:25;;;;;;;18.88;8.05;;;;;;;-143.90;100.00;65065.84;6211970;23;20017;-87
2023/10/21 07:37:08;;;;;;;4.97;2.55;;;;;;;-143.90;100.00;65065.84;6214839;23;20453;-92
2023/10/21 07:39:33;;;;;;;3.83;2.20;;;;;;;-143.90;100.00;65065.84;6214012;23;20390;-86
2023/10/21 07:41:59;;;;;;;2.63;1.80;;;;;;;-143.90;100.00;65065.84;6213365;23;20005;-87
2023/10/21 07:44:24;;;;;;;3.08;1.90;;;;;;;-143.90;100.00;65065.84;6212528;23;20012;-83
2023/10/21 07:46:52;;;;;;;3.15;2.20;;;;;;;-143.90;100.00;65065.84;6188138;23;20013;-85
2023/10/21 07:49:18;;;;;;;4.75;2.17;;;;;;;-143.90;100.00;65065.84;6214377;23;20000;-87
2023/10/21 07:51:43;;;;;;;2.97;1.80;;;;;;;-143.90;100.00;65065.84;6187649;23;20019;-86
2023/10/21 07:54:08;;;;;;;5.00;2.25;;;;;;;-143.90;100.00;65065.84;6214392;23;20009;-86
2023/10/21 07:56:34;;;;;;;3.15;1.85;;;;;;;-143.90;100.00;65065.84;6214187;23;20381;-87
2023/10/21 07:58:59;;;;;;;1.95;1.60;;;;;;;-143.90;100.00;65065.84;6187753;23;20043;-87
2023/10/21 08:01:24;;;;;;;4.97;2.05;;;;;;;-143.90;100.00;65065.84;6214207;23;20322;-87
2023/10/21 08:03:49;;;;;;;3.20;1.75;;;;;;;-143.90;100.00;65065.84;6187263;23;20008;-85
2023/10/21 08:06:15;;;;;;;4.85;1.73;;;;;;;-143.90;100.00;65065.84;6212347;23;20096;-86
2023/10/21 08:08:40;;;;;;;3.13;2.58;;;;;;;-143.90;100.00;65065.84;6214054;23;20083;-85
2023/10/21 08:11:07;;;;;;;4.38;1.95;;;;;;;-143.90;100.00;65065.84;6214043;23;20015;-85
2023/10/21 08:13:32;;;;;;;3.30;2.10;;;;;;;-143.90;100.00;65065.84;6212737;23;20005;-85
2023/10/21 08:15:57;;;;;;;3.35;1.90;;;;;;;-143.90;100.00;65065.84;6214010;23;20012;-87
2023/10/21 08:18:23;;;;;;;5.30;2.00;;;;;;;-143.90;100.00;65065.84;6212293;23;20053;-87
2023/10/21 08:20:49;;;;;;;4.90;2.10;;;;;;;-143.90;100.00;65065.84;6187405;23;20083;-86
2023/10/21 08:23:15;;;;;;;3.05;2.22;;;;;;;-143.90;100.00;65065.84;6214419;23;20008;-87
2023/10/21 08:25:41;;;;;;;2.78;1.70;;;;;;;-143.90;100.00;65065.84;6187647;23;20008;-87
2023/10/21 08:28:08;;;;;;;2.25;1.50;;;;;;;-143.90;100.00;65065.84;6212774;23;20015;-87
2023/10/21 08:30:33;;;;;;;1.75;1.23;;;;;;;-143.90;100.00;65065.84;6212751;23;20019;-85
2023/10/21 08:32:59;;;;;;;1.98;1.30;;;;;;;-143.90;100.00;65065.84;6214234;23;20013;-85
2023/10/21 08:35:24;;;;;;;2.45;1.50;;;;;;;-143.90;100.00;65065.84;6212424;23;20009;-86
2023/10/21 08:37:50;;;;;;;7.93;1.60;;;;;;;-143.90;100.00;65065.84;6212371;23;20079;-85
2023/10/21 08:40:16;;;;;;;4.15;1.55;;;;;;;-143.90;100.00;65065.84;6212777;23;20008;-85
2023/10/21 08:42:41;;;;;;;1.48;1.38;;;;;;;-143.90;100.00;65065.84;6187673;23;20011;-86
2023/10/21 08:45:09;;;;;;;2.35;1.40;;;;;;;-143.90;100.00;65065.84;6187349;23;20008;-87
2023/10/21 08:47:35;;;;;;;2.15;1.40;;;;;;;-143.90;100.00;65065.84;6214282;23;20008;-86
2023/10/21 08:50:03;;;;;;;2.53;1.42;;;;;;;-143.90;100.00;65065.84;6214181;23;20702;-84
2023/10/21 08:52:29;;;;;;;2.15;1.40;;;;;;;-143.90;100.00;65065.84;6187595;23;20011;-87
2023/10/21 08:54:55;;;;;;;1.95;1.20;;;;;;;-143.90;100.00;65065.84;6213747;23;20001;-84
2023/10/21 08:57:21;;;;;;;3.22;2.08;;;;;;;-143.90;100.00;65065.84;6212665;23;20008;-84
2023/10/21 08:59:49;;;;;;;1.55;1.25;;;;;;;-143.90;100.00;65065.84;6214158;23;20054;-84
2023/10/21 09:02:14;;;;;;;3.13;1.45;;;;;;;-143.90;100.00;65065.84;6214183;23;20416;-84
2023/10/21 09:04:39;;;;;;;2.42;1.30;;;;;;;-143.90;100.00;65065.84;6212623;23;20042;-86
2023/10/21 09:07:05;;;;;;;4.80;1.40;;;;;;;-143.90;100.00;65065.84;6212772;23;20015;-84
2023/10/21 09:09:30;;;;;;;3.00;1.30;;;;;;;-143.90;100.00;65065.84;6214192;23;20011;-86
2023/10/21 09:12:10;;;;;;;1.60;1.27;;;;;;;-143.90;100.00;65065.84;6214076;23;20080;-84
2023/10/21 09:14:56;;;;;;;5.47;1.83;;;;;;;-143.90;100.00;65065.84;6214153;23;20008;-84
2023/10/21 09:17:36;;;;;;;2.80;1.50;;;;;;;-143.90;100.00;65065.84;6213943;23;20015;-85
2023/10/21 09:20:09;;;;;;;2.45;1.40;;;;;;;-143.90;100.00;65065.84;6187499;23;20051;-83
2023/10/21 09:22:36;;;;;;;;;;;;;;;-143.90;100.00;65065.84;6187692;23;20381;-82
2023/10/21 09:25:20;;;;;;;1.92;1.50;;;;;;;-143.90;100.00;65065.84;6187635;23;19908;-83
2023/10/21 09:27:54;;;;;;;3.72;1.20;;;;;;;-143.90;100.00;65065.84;6187200;23;20457;-83
2023/10/21 09:30:38;;;;;;;2.65;1.40;;;;;;;-143.90;100.00;65065.84;6212243;23;20047;-81
2023/10/21 09:33:05;;;;;;;2.17;1.25;;;;;;;-143.90;100.00;65065.84;6214188;23;20009;-83
2023/10/21 09:35:30;;;;;;;3.35;1.20;;;;;;;-143.90;100.00;65065.84;6187442;23;20005;-83
2023/10/21 09:37:57;;;;;;;3.97;1.30;;;;;;;-143.90;100.00;65065.84;6214171;23;20015;-81
2023/10/21 09:40:24;;;;;;;3.47;1.30;;;;;;;-143.90;100.00;65065.84;6187357;23;20421;-79
2023/10/21 09:42:52;;;;;;;5.40;1.75;;;;;;;-143.90;100.00;65065.84;6187459;23;20724;-81
2023/10/21 09:45:18;;;;;;;3.15;1.83;;;;;;;-143.90;100.00;65065.84;6214304;23;20004;-80
2023/10/21 09:47:43;;;;;;;2.45;1.30;;;;;;;-143.90;100.00;65065.84;6212427;23;20016;-81
2023/10/21 09:50:14;;;;;;;4.20;1.60;;;;;;;-143.90;100.00;65065.84;6187414;23;20116;-82
2023/10/21 09:52:54;;;;;;;3.30;1.67;;;;;;;-143.90;100.00;65065.84;6187471;23;20004;-83
2023/10/21 09:55:25;;;;;;;7.32;1.60;;;;;;;-143.90;100.00;65065.84;6214206;23;20437;-81
2023/10/21 09:57:53;;;;;;;2.63;1.52;;;;;;;-143.90;100.00;65065.84;6212878;23;20055;-81
2023/10/21 10:00:19;;;;;;;5.82;1.73;;;;;;;-143.90;100.00;65065.84;6187609;23;20063;-85
2023/10/21 10:02:48;;;;;;;6.72;1.80;;;;;;;-143.90;100.00;65065.84;6214285;23;20333;-82
2023/10/21 10:05:14;;;;;;;3.28;1.50;;;;;;;-143.90;100.00;65065.84;6213911;23;20063;-80
2023/10/21 10:07:41;;;;;;;5.20;1.80;;;;;;;-143.90;100.00;65065.84;6214089;23;20015;-81
2023/10/21 10:10:12;;;;;;;4.82;2.00;;;;;;;-143.90;100.00;65065.84;6187238;23;20087;-83
2023/10/21 10:12:52;;;;;;;2.75;1.33;;;;;;;-143.90;100.00;65065.84;6214161;23;20001;-81
2023/10/21 10:15:33;;;;;;;5.78;1.48;;;;;;;-143.90;100.00;65065.84;6187293;23;20008;-82
2023/10/21 10:18:06;;;;;;;4.45;1.65;;;;;;;-143.90;100.00;65065.84;6214070;23;20008;-80
2023/10/21 10:20:44;;;;;;;2.25;1.38;;;;;;;-143.90;100.00;65065.84;6212466;23;20139;-85
2023/10/21 10:23:14;;;;;;;3.88;2.03;;;;;;;-143.90;100.00;65065.84;6214289;23;20016;-82
2023/10/21 10:25:44;;;;;;;5.00;1.73;;;;;;;-143.90;100.00;65065.84;6209040;23;20011;-84
2023/10/21 10:28:26;;;;;;;3.58;1.40;;;;;;;-143.90;100.00;65065.84;6214375;23;20347;-82
2023/10/21 10:30:53;;;;;;;4.40;1.60;;;;;;;-143.90;100.00;65065.84;6212768;23;20005;-83
2023/10/21 10:33:34;;;;;;;4.03;1.75;;;;;;;-143.90;100.00;65065.84;6187217;23;20441;-81
2023/10/21 10:36:12;;;;;;;5.63;1.95;;;;;;;-143.90;100.00;65065.84;6188267;23;20043;-82
2023/10/21 10:38:44;;;;;;;5.72;1.75;;;;;;;-143.90;100.00;65065.84;6214141;23;20387;-84
2023/10/21 10:41:15;;;;;;;5.05;1.55;;;;;;;-143.90;100.00;65065.84;6213826;23;20017;-83
2023/10/21 10:43:45;;;;;;;4.55;2.00;;;;;;;-143.90;100.00;65065.84;6214047;23;20014;-82
2023/10/21 10:46:21;;;;;;;5.47;1.70;;;;;;;-143.90;100.00;65065.84;6187428;23;20009;-85
2023/10/21 10:48:46;;;;;;;2.95;1.60;;;;;;;-143.90;100.00;65065.84;6164648;23;20434;-82
2023/10/21 10:51:19;;;;;;;5.57;1.75;;;;;;;-143.90;100.00;65065.84;6187369;23;20047;-81
2023/10/21 10:53:56;;;;;;;4.32;1.55;;;;;;;-143.90;100.00;65065.84;6187323;23;20009;-83
2023/10/21 10:56:22;;;;;;;5.43;2.00;;;;;;;-143.90;100.00;65065.84;6213836;23;20476;-82
2023/10/21 10:58:48;;;;;;;6.25;2.10;;;;;;;-143.90;100.00;65065.84;6213846;23;20039;-83
2023/10/21 11:01:18;;;;;;;6.20;2.05;;;;;;;-143.90;100.00;65065.84;6187368;23;20103;-82
2023/10/21 11:03:43;;;;;;;3.55;2.22;;;;;;;-143.90;100.00;65065.84;6212311;23;20012;-81
2023/10/21 11:06:09;;;;;;;6.55;2.38;;;;;;;-143.90;100.00;65065.84;6213773;23;20013;-82
2023/10/21 11:08:35;;;;;;;4.65;1.70;;;;;;;-143.90;100.00;65065.84;6212169;23;20008;-80
2023/10/21 11:11:05;;;;;;;6.38;2.13;;;;;;;-143.90;100.00;65065.84;6213382;23;20370;-81
2023/10/21 11:13:30;;;;;;;4.38;1.50;;;;;;;-143.90;100.00;65065.84;6213480;23;20012;-83
2023/10/21 11:15:57;;;;;;;4.45;1.80;;;;;;;-143.90;100.00;65065.84;6213461;23;20066;-81
2023/10/21 11:18:24;;;;;;;5.75;2.17;;;;;;;-143.90;100.00;65065.84;6212975;23;20012;-79